Time;durP1;ratioP1;P1;durP2;ratioP2;P2;SDS_P1;SDS_P2;PMS_P1;PMS_P2;Temp;Humidity;BMP_temperature;BMP_pressure;BME280_temperature;BME280_humidity;BME280_pressure;Samples;Min_cycle;Max_cycle;Signal;HPM_P1;HPM_P2
2021/01/02 00:02:18;;;;;;;6.50;3.63;;;;;;;4.76;100.00;100120.06;1855158;77;21382;-72
2021/01/02 00:05:02;;;;;;;8.20;3.53;;;;;;;4.74;100.00;100124.20;1854482;77;21434;-72
2021/01/02 00:08:03;;;;;;;5.90;3.17;;;;;;;4.73;100.00;100123.86;1855289;77;21522;-72
2021/01/02 00:10:42;;;;;;;6.87;3.57;;;;;;;4.71;100.00;100129.84;1853434;77;21366;-70
2021/01/02 00:13:33;;;;;;;4.57;2.83;;;;;;;4.69;100.00;100122.91;1821598;78;20910;-71
2021/01/02 00:16:12;;;;;;;9.00;3.87;;;;;;;4.70;100.00;100134.83;1821547;78;21456;-71
2021/01/02 00:19:01;;;;;;;9.47;3.77;;;;;;;4.75;100.00;100125.92;1845349;76;26553;-71
2021/01/02 00:21:31;;;;;;;6.80;3.62;;;;;;;4.73;100.00;100129.72;1815594;79;21004;-71
2021/01/02 00:24:10;;;;;;;5.20;3.27;;;;;;;4.74;100.00;100132.73;1784508;79;21470;-71
2021/01/02 00:26:50;;;;;;;8.10;4.50;;;;;;;4.74;100.00;100127.38;1810936;79;21545;-71
2021/01/02 00:29:23;;;;;;;7.10;3.63;;;;;;;4.73;100.00;100123.86;1810852;79;21565;-70
2021/01/02 00:32:13;;;;;;;7.67;3.90;;;;;;;4.74;100.00;100122.02;1815372;77;21628;-70
2021/01/02 00:35:18;;;;;;;6.70;3.83;;;;;;;4.72;100.00;100134.70;1744787;81;21520;-70
2021/01/02 00:38:04;;;;;;;4.90;3.17;;;;;;;4.69;100.00;100144.33;1744578;81;21388;-70
2021/01/02 00:40:39;;;;;;;7.10;3.70;;;;;;;4.72;100.00;100143.58;1845391;76;26922;-72
2021/01/02 00:43:06;;;;;;;8.57;3.87;;;;;;;4.66;100.00;100150.81;1815246;77;20996;-71
2021/01/02 00:45:35;;;;;;;9.27;4.13;;;;;;;4.64;100.00;100163.96;1815356;78;21863;-72
2021/01/02 00:48:05;;;;;;;10.23;4.10;;;;;;;4.64;100.00;100164.83;1815194;79;20929;-72
2021/01/02 00:50:33;;;;;;;8.70;3.93;;;;;;;4.65;100.00;100164.33;1815204;79;21000;-70
2021/01/02 00:53:20;;;;;;;6.03;3.27;;;;;;;4.65;100.00;100177.23;1815365;79;21557;-73
2021/01/02 00:56:09;;;;;;;8.87;4.93;;;;;;;4.69;100.00;100175.14;1849130;76;26505;-71
2021/01/02 00:59:14;;;;;;;7.73;3.87;;;;;;;4.62;100.00;100187.34;1762760;81;21047;-71
2021/01/02 01:02:00;;;;;;;7.97;4.00;;;;;;;4.59;100.00;100191.66;1766424;81;21768;-71
2021/01/02 01:05:02;;;;;;;7.97;3.50;;;;;;;4.61;100.00;100194.55;1845207;76;27116;-71
2021/01/02 01:07:32;;;;;;;10.30;4.03;;;;;;;4.58;100.00;100195.30;1815346;78;20976;-70
2021/01/02 01:10:04;;;;;;;6.33;3.47;;;;;;;4.56;100.00;100196.26;1815300;79;21574;-71
2021/01/02 01:12:31;;;;;;;8.03;3.73;;;;;;;4.56;100.00;100192.23;1815223;79;20980;-72
2021/01/02 01:14:59;;;;;;;8.67;4.07;;;;;;;4.53;100.00;100185.83;1758764;79;20992;-71
2021/01/02 01:17:27;;;;;;;5.77;3.43;;;;;;;4.51;100.00;100194.45;1758774;79;21027;-70
2021/01/02 01:19:54;;;;;;;4.07;2.47;;;;;;;4.50;100.00;100197.28;1784150;79;20865;-70
2021/01/02 01:22:27;;;;;;;4.90;3.30;;;;;;;4.48;100.00;100195.20;1783041;80;21379;-71
2021/01/02 01:25:07;;;;;;;8.47;3.50;;;;;;;4.48;100.00;100194.73;1783068;80;21031;-70
2021/01/02 01:27:56;;;;;;;5.00;3.33;;;;;;;4.48;100.00;100198.75;1783196;80;20968;-71
2021/01/02 01:30:24;;;;;;;7.17;3.33;;;;;;;4.47;100.00;100206.91;1728630;80;20924;-71
2021/01/02 01:33:02;;;;;;;4.60;2.70;;;;;;;4.48;100.00;100201.42;1783154;80;21047;-70
2021/01/02 01:35:31;;;;;;;8.00;3.87;;;;;;;4.50;100.00;100203.48;1789785;78;21376;-71
2021/01/02 01:37:59;;;;;;;10.10;3.67;;;;;;;4.54;100.00;100206.25;1815204;79;20980;-71
2021/01/02 01:40:31;;;;;;;7.23;3.70;;;;;;;4.52;100.00;100209.55;1815140;79;21028;-70
2021/01/02 01:43:05;;;;;;;5.13;2.70;;;;;;;4.52;100.00;100213.57;1736961;82;21023;-70
2021/01/02 01:46:08;;;;;;;6.57;2.87;;;;;;;4.54;100.00;100218.30;1844652;76;27015;-70
2021/01/02 01:48:56;;;;;;;9.93;3.93;;;;;;;4.52;100.00;100220.77;1746985;82;21013;-71
2021/01/02 01:51:52;;;;;;;5.37;2.87;;;;;;;4.52;100.00;100221.61;1769798;81;22373;-71
2021/01/02 01:54:47;;;;;;;9.70;3.90;;;;;;;4.53;100.00;100223.78;1766025;81;20944;-70
2021/01/02 01:57:24;;;;;;;8.20;3.53;;;;;;;4.54;100.00;100224.16;1794839;80;21041;-71
2021/01/02 02:00:01;;;;;;;7.67;3.83;;;;;;;4.51;100.00;100224.41;1770144;81;21043;-70
2021/01/02 02:02:50;;;;;;;6.60;3.27;;;;;;;4.49;100.00;100231.72;1770080;81;20961;-72
2021/01/02 02:05:23;;;;;;;4.87;2.73;;;;;;;4.48;100.00;100236.23;1803547;79;22665;-71
2021/01/02 02:08:05;;;;;;;7.85;3.65;;;;;;;4.48;100.00;100234.02;1771914;81;20904;-71
2021/01/02 02:10:39;;;;;;;6.00;3.00;;;;;;;4.46;100.00;100244.02;1801672;79;20989;-70
2021/01/02 02:13:20;;;;;;;11.73;4.50;;;;;;;4.44;100.00;100249.99;1769927;80;21514;-70
2021/01/02 02:15:56;;;;;;;6.43;3.80;;;;;;;4.45;100.00;100259.24;1771706;81;20930;-71
2021/01/02 02:18:29;;;;;;;8.73;4.10;;;;;;;4.45;100.00;100263.75;1771921;81;21794;-71
2021/01/02 02:20:59;;;;;;;10.17;4.60;;;;;;;4.45;100.00;100265.94;1771913;81;20901;-71
2021/01/02 02:23:37;;;;;;;8.83;4.70;;;;;;;4.46;100.00;100268.98;1771789;81;20981;-71
2021/01/02 02:26:30;;;;;;;7.70;3.60;;;;;;;4.45;100.00;100271.79;1731630;82;21052;-69
2021/01/02 02:29:20;;;;;;;9.38;4.35;;;;;;;4.46;100.00;100281.51;1731916;82;21009;-70
2021/01/02 02:31:46;;;;;;;8.10;4.10;;;;;;;4.45;100.00;100273.12;1699224;84;22395;-69
2021/01/02 02:34:14;;;;;;;6.13;3.47;;;;;;;4.43;100.00;100279.94;1725849;83;21032;-72
2021/01/02 02:36:42;;;;;;;6.93;3.23;;;;;;;4.41;100.00;100283.23;1731668;82;21021;-71
2021/01/02 02:39:12;;;;;;;5.13;3.40;;;;;;;4.40;100.00;100282.02;1731783;82;21001;-72
2021/01/02 02:41:50;;;;;;;6.63;4.03;;;;;;;4.42;100.00;100286.76;1731933;82;21194;-71
2021/01/02 02:44:28;;;;;;;9.30;4.00;;;;;;;4.46;100.00;100290.88;1845341;76;27140;-70
2021/01/02 02:46:58;;;;;;;6.47;3.37;;;;;;;4.41;100.00;100292.61;1815202;78;20980;-72
2021/01/02 02:49:28;;;;;;;6.07;3.13;;;;;;;4.41;100.00;100295.29;1815256;79;21189;-71
2021/01/02 02:52:16;;;;;;;10.93;4.90;;;;;;;4.41;100.00;100293.95;1815182;78;21371;-72
2021/01/02 02:54:44;;;;;;;14.30;5.33;;;;;;;4.40;100.00;100302.10;1815338;79;21554;-71
2021/01/02 02:57:12;;;;;;;8.07;3.47;;;;;;;4.41;100.00;100310.48;1815213;77;21004;-72
2021/01/02 02:59:39;;;;;;;10.97;4.27;;;;;;;4.41;100.00;100312.70;1815230;79;20984;-71
2021/01/02 03:02:07;;;;;;;12.37;4.73;;;;;;;4.44;100.00;100314.25;1815343;79;21426;-71
2021/01/02 03:04:35;;;;;;;13.53;4.97;;;;;;;4.45;100.00;100319.49;1784132;79;20932;-72
2021/01/02 03:07:04;;;;;;;11.07;4.17;;;;;;;4.48;100.00;100320.59;1815221;79;20992;-71
2021/01/02 03:09:32;;;;;;;10.90;3.67;;;;;;;4.47;100.00;100319.38;1815276;79;20917;-70
2021/01/02 03:12:01;;;;;;;8.93;4.10;;;;;;;4.46;100.00;100322.55;1845297;77;21013;-72
2021/01/02 03:14:29;;;;;;;11.27;5.03;;;;;;;4.43;100.00;100322.78;1860915;77;22325;-71
2021/01/02 03:16:59;;;;;;;11.33;5.10;;;;;;;4.40;100.00;100319.02;1860748;77;21004;-71
2021/01/02 03:19:31;;;;;;;12.73;5.53;;;;;;;4.40;100.00;100326.20;1762265;81;21027;-71
2021/01/02 03:21:59;;;;;;;10.00;4.73;;;;;;;4.40;100.00;100333.73;1762470;80;21616;-71
2021/01/02 03:24:27;;;;;;;10.07;5.10;;;;;;;4.42;100.00;100334.45;1762309;81;21012;-70
2021/01/02 03:26:54;;;;;;;13.40;5.43;;;;;;;4.42;100.00;100333.12;1762260;81;21131;-73
2021/01/02 03:29:22;;;;;;;12.00;4.43;;;;;;;4.41;100.00;100335.45;1762348;81;21024;-71
2021/01/02 03:31:50;;;;;;;8.70;4.00;;;;;;;4.40;100.00;100340.92;1762326;81;20964;-71
2021/01/02 03:34:18;;;;;;;13.20;5.23;;;;;;;4.39;100.00;100342.73;1762295;81;21063;-71
2021/01/02 03:36:45;;;;;;;10.83;4.10;;;;;;;4.38;100.00;100344.56;1762357;81;20964;-71
2021/01/02 03:39:13;;;;;;;16.53;6.17;;;;;;;4.39;100.00;100353.44;1762325;81;21171;-71
2021/01/02 03:41:41;;;;;;;16.90;6.27;;;;;;;4.37;100.00;100356.27;1762381;81;21589;-72
2021/01/02 03:44:09;;;;;;;13.53;4.40;;;;;;;4.37;100.00;100350.91;1762234;81;21039;-71
2021/01/02 03:46:36;;;;;;;20.77;5.97;;;;;;;4.38;100.00;100359.29;1739587;81;20968;-71
2021/01/02 03:49:04;;;;;;;13.27;4.93;;;;;;;4.41;100.00;100363.56;1732147;82;21263;-71
2021/01/02 03:51:31;;;;;;;13.10;5.10;;;;;;;4.42;100.00;100359.89;1732034;81;21384;-71
2021/01/02 03:53:59;;;;;;;12.50;5.07;;;;;;;4.46;100.00;100371.20;1731925;81;21060;-71
2021/01/02 03:56:27;;;;;;;11.67;4.40;;;;;;;4.47;100.00;100371.09;1731526;82;21004;-71
2021/01/02 03:58:54;;;;;;;14.27;6.53;;;;;;;4.49;100.00;100372.31;1731608;82;21016;-71
2021/01/02 04:01:23;;;;;;;10.43;3.97;;;;;;;4.50;100.00;100373.53;1731626;82;21498;-72
2021/01/02 04:03:50;;;;;;;11.53;6.27;;;;;;;4.51;100.00;100380.57;1731577;82;22091;-72
2021/01/02 04:06:25;;;;;;;14.60;5.43;;;;;;;4.52;100.00;100387.64;1731442;82;21725;-70
2021/01/02 04:08:53;;;;;;;14.73;5.17;;;;;;;4.52;100.00;100390.81;1731525;82;21012;-72
2021/01/02 04:11:21;;;;;;;14.90;5.53;;;;;;;4.50;100.00;100396.79;1730905;82;21565;-72
2021/01/02 04:13:49;;;;;;;12.57;5.50;;;;;;;4.50;100.00;100405.66;1730093;83;21024;-71
2021/01/02 04:16:18;;;;;;;20.67;7.60;;;;;;;4.50;100.00;100408.84;1770478;79;22165;-73
2021/01/02 04:18:46;;;;;;;14.57;5.20;;;;;;;4.51;100.00;100414.05;1733509;82;20997;-72
2021/01/02 04:21:13;;;;;;;18.00;7.17;;;;;;;4.52;100.00;100414.42;1769382;81;20975;-72
2021/01/02 04:23:41;;;;;;;10.87;5.00;;;;;;;4.53;100.00;100412.12;1769328;81;20997;-73
2021/01/02 04:26:08;;;;;;;12.27;4.73;;;;;;;4.53;100.00;100412.12;1769527;81;21091;-72
2021/01/02 04:28:36;;;;;;;14.23;5.50;;;;;;;4.58;100.00;100422.94;1769410;81;21202;-71
2021/01/02 04:31:04;;;;;;;12.83;5.13;;;;;;;4.59;100.00;100432.20;1733571;82;21049;-71
2021/01/02 04:33:32;;;;;;;21.30;8.63;;;;;;;4.62;100.00;100444.02;1769492;81;20977;-72
2021/01/02 04:36:00;;;;;;;27.00;8.93;;;;;;;4.63;100.00;100449.72;1769331;81;20965;-71
2021/01/02 04:38:28;;;;;;;20.43;7.63;;;;;;;4.63;100.00;100452.39;1769325;81;21558;-71
2021/01/02 04:40:57;;;;;;;28.43;9.80;;;;;;;4.62;100.00;100459.20;1769344;81;21005;-72
2021/01/02 04:43:26;;;;;;;15.43;6.17;;;;;;;4.61;100.00;100465.06;1769191;81;21049;-71
2021/01/02 04:45:54;;;;;;;28.40;10.50;;;;;;;4.62;100.00;100469.46;1771525;80;21577;-71
2021/01/02 04:48:22;;;;;;;24.40;9.00;;;;;;;4.63;100.00;100476.50;1774206;80;21031;-72
2021/01/02 04:50:49;;;;;;;17.53;7.00;;;;;;;4.62;100.00;100478.83;1774211;80;21019;-71
2021/01/02 04:53:19;;;;;;;14.50;5.83;;;;;;;4.62;100.00;100494.03;1774292;80;21364;-71
2021/01/02 04:55:47;;;;;;;17.73;6.97;;;;;;;4.63;100.00;100498.42;1774375;80;20995;-72
2021/01/02 04:58:18;;;;;;;16.17;7.10;;;;;;;4.62;100.00;100499.39;1774359;79;20956;-70
2021/01/02 05:00:50;;;;;;;13.13;5.83;;;;;;;4.61;100.00;100509.27;1774205;80;20987;-71
2021/01/02 05:03:18;;;;;;;11.78;5.30;;;;;;;4.59;100.00;100505.85;1774526;80;21007;-71
2021/01/02 05:05:50;;;;;;;15.80;7.23;;;;;;;4.58;100.00;100522.04;1774308;80;21424;-71
2021/01/02 05:08:18;;;;;;;13.83;5.62;;;;;;;4.54;100.00;100525.45;1774333;80;28655;-71
2021/01/02 05:11:04;;;;;;;11.03;5.03;;;;;;;4.49;100.00;100519.10;1768853;80;21021;-72
2021/01/02 05:13:37;;;;;;;9.37;3.80;;;;;;;4.49;100.00;100530.31;1740383;82;20992;-71
2021/01/02 05:16:27;;;;;;;13.08;5.22;;;;;;;4.47;100.00;100542.48;1675316;84;20987;-71
2021/01/02 05:19:01;;;;;;;12.73;5.80;;;;;;;4.48;100.00;100547.33;1674941;85;22295;-72
2021/01/02 05:21:30;;;;;;;13.70;5.53;;;;;;;4.47;100.00;100547.83;1693093;84;21610;-71
2021/01/02 05:24:13;;;;;;;12.73;6.07;;;;;;;4.45;100.00;100550.28;1703344;84;21673;-72
2021/01/02 05:26:44;;;;;;;14.87;5.43;;;;;;;4.45;100.00;100558.31;1703326;84;21577;-71
2021/01/02 05:29:21;;;;;;;16.10;6.90;;;;;;;4.48;100.00;100562.94;1845446;76;27083;-71
2021/01/02 05:31:54;;;;;;;10.77;4.97;;;;;;;4.44;100.00;100570.82;1815380;78;20992;-72
2021/01/02 05:34:26;;;;;;;14.73;6.20;;;;;;;4.45;100.00;100579.23;1728341;81;21420;-72
2021/01/02 05:37:05;;;;;;;13.77;6.40;;;;;;;4.50;100.00;100579.73;1889971;76;26370;-71
2021/01/02 05:39:41;;;;;;;14.80;6.17;;;;;;;4.45;100.00;100579.23;1809118;78;21033;-71
2021/01/02 05:42:09;;;;;;;11.23;4.70;;;;;;;4.45;100.00;100584.59;1742718;82;22189;-72
2021/01/02 05:44:39;;;;;;;11.73;5.27;;;;;;;4.44;100.00;100594.08;1809018;79;20993;-72
2021/01/02 05:47:07;;;;;;;15.57;6.70;;;;;;;4.43;100.00;100600.42;1742702;82;21514;-73
2021/01/02 05:49:40;;;;;;;15.60;6.53;;;;;;;4.40;100.00;100602.83;1708065;81;21076;-72
2021/01/02 05:52:11;;;;;;;8.68;4.20;;;;;;;4.37;100.00;100607.08;1808985;79;20977;-72
2021/01/02 05:54:49;;;;;;;17.07;6.27;;;;;;;4.33;100.00;100607.80;1782458;79;22552;-73
2021/01/02 05:57:26;;;;;;;9.63;3.83;;;;;;;4.32;100.00;100624.84;1808610;79;20981;-71
2021/01/02 06:00:01;;;;;;;12.00;4.43;;;;;;;4.34;100.00;100620.23;1890002;76;26622;-72
2021/01/02 06:02:32;;;;;;;15.67;6.93;;;;;;;4.28;100.00;100629.20;1860939;77;20926;-73
2021/01/02 06:05:07;;;;;;;11.57;5.43;;;;;;;4.26;100.00;100637.84;1860853;77;21184;-71
2021/01/02 06:07:36;;;;;;;14.43;5.97;;;;;;;4.23;100.00;100642.08;1860957;77;20978;-73
2021/01/02 06:10:09;;;;;;;11.90;5.83;;;;;;;4.20;100.00;100641.84;1860916;77;21555;-72
2021/01/02 06:12:38;;;;;;;11.55;5.05;;;;;;;4.18;100.00;100650.47;1860920;77;21502;-72
2021/01/02 06:15:15;;;;;;;11.00;5.17;;;;;;;4.15;100.00;100653.38;1860915;77;20957;-71
2021/01/02 06:20:18;;;;;;;11.90;5.07;;;;;;;4.10;100.00;100665.74;1793628;80;20944;-71
2021/01/02 06:22:48;;;;;;;12.87;5.00;;;;;;;4.11;100.00;100669.30;1781884;80;21616;-72
2021/01/02 06:25:16;;;;;;;13.47;4.67;;;;;;;4.11;100.00;100675.50;1769404;81;21004;-73
2021/01/02 06:27:46;;;;;;;12.73;4.87;;;;;;;4.11;100.00;100677.33;1769406;81;21027;-72
2021/01/02 06:30:17;;;;;;;7.37;4.40;;;;;;;4.10;100.00;100678.28;1769432;81;21187;-73
2021/01/02 06:32:47;;;;;;;19.37;6.23;;;;;;;4.09;100.00;100684.59;1771953;79;22478;-72
2021/01/02 06:35:25;;;;;;;14.80;5.97;;;;;;;4.13;100.00;100691.45;1890035;76;27054;-71
2021/01/02 06:38:02;;;;;;;14.53;5.77;;;;;;;4.08;100.00;100698.47;1860881;77;20986;-71
2021/01/02 06:40:38;;;;;;;6.00;3.70;;;;;;;4.07;100.00;100710.16;1860821;77;21811;-72
2021/01/02 06:43:11;;;;;;;5.03;2.93;;;;;;;4.06;100.00;100717.80;1860512;77;20977;-75
2021/01/02 06:45:43;;;;;;;11.13;5.03;;;;;;;4.09;100.00;100718.92;1860700;76;21022;-72
2021/01/02 06:48:26;;;;;;;9.93;4.73;;;;;;;4.11;100.00;100724.17;1860775;77;21014;-72
2021/01/02 06:50:59;;;;;;;9.95;4.65;;;;;;;4.10;100.00;100719.27;1860940;77;21002;-72
2021/01/02 06:53:35;;;;;;;;;;;;;;;4.06;100.00;100727.17;1863542;77;21185;-73
2021/01/02 06:56:07;;;;;;;5.70;3.70;;;;;;;4.05;100.00;100736.16;1860687;77;20133;-73
2021/01/02 06:58:44;;;;;;;7.33;4.20;;;;;;;4.03;100.00;100746.12;1794140;80;20977;-74
2021/01/02 07:01:26;;;;;;;8.30;4.50;;;;;;;4.02;100.00;100744.89;1793878;80;21095;-73
2021/01/02 07:03:54;;;;;;;12.10;4.73;;;;;;;4.02;100.00;100747.11;1794176;80;20996;-73
2021/01/02 07:06:24;;;;;;;11.50;4.90;;;;;;;3.99;100.00;100749.99;1794026;80;22344;-72
2021/01/02 07:09:10;;;;;;;7.90;4.67;;;;;;;3.96;100.00;100765.77;1798215;78;21525;-73
2021/01/02 07:12:01;;;;;;;9.60;4.63;;;;;;;3.95;100.00;100769.92;1825957;78;21056;-73
2021/01/02 07:14:29;;;;;;;5.00;3.30;;;;;;;3.95;100.00;100775.27;1690395;84;21240;-72
2021/01/02 07:17:09;;;;;;;7.53;3.90;;;;;;;3.94;100.00;100774.40;1713870;82;21073;-73
2021/01/02 07:19:46;;;;;;;9.47;4.63;;;;;;;3.95;100.00;100780.63;1785267;80;22071;-72
2021/01/02 07:22:22;;;;;;;8.43;3.83;;;;;;;3.94;100.00;100780.23;1784987;80;21029;-71
2021/01/02 07:25:04;;;;;;;9.53;4.13;;;;;;;3.95;100.00;100789.50;1772641;80;21036;-73
2021/01/02 07:27:40;;;;;;;9.93;5.13;;;;;;;3.99;100.00;100791.47;1890095;76;27182;-73
2021/01/02 07:30:12;;;;;;;6.27;3.67;;;;;;;3.92;100.00;100796.89;1861030;77;20971;-73
2021/01/02 07:32:43;;;;;;;9.17;4.60;;;;;;;3.88;100.00;100798.94;1828827;77;21748;-72
2021/01/02 07:35:13;;;;;;;11.67;4.97;;;;;;;3.86;100.00;100809.35;1860408;77;21010;-72
2021/01/02 07:37:43;;;;;;;9.53;4.93;;;;;;;3.82;100.00;100819.42;1860778;77;21002;-71
2021/01/02 07:40:17;;;;;;;13.07;5.87;;;;;;;3.83;100.00;100820.30;1860836;77;21049;-72
2021/01/02 07:42:51;;;;;;;8.17;3.63;;;;;;;3.82;100.00;100826.59;1860884;77;21781;-71
2021/01/02 07:45:24;;;;;;;5.93;3.03;;;;;;;3.81;100.00;100833.78;1862944;76;21036;-72
2021/01/02 07:47:54;;;;;;;8.00;3.40;;;;;;;3.78;100.00;100836.17;1812442;79;21005;-72
2021/01/02 07:50:24;;;;;;;8.27;3.57;;;;;;;3.79;100.00;100837.89;1816714;79;21013;-71
2021/01/02 07:52:54;;;;;;;9.03;3.70;;;;;;;3.83;100.00;100841.70;1812322;79;21024;-71
2021/01/02 07:55:24;;;;;;;8.67;4.77;;;;;;;3.86;100.00;100845.47;1816305;79;21057;-70
2021/01/02 07:57:51;;;;;;;7.67;3.87;;;;;;;3.88;100.00;100851.56;1812310;79;21353;-71
2021/01/02 08:00:20;;;;;;;11.60;4.67;;;;;;;3.89;100.00;100850.13;1816570;79;20930;-72
2021/01/02 08:02:47;;;;;;;6.73;4.57;;;;;;;3.92;100.00;100859.28;1812340;79;20994;-73
2021/01/02 08:05:19;;;;;;;11.00;4.80;;;;;;;3.91;100.00;100861.60;1816580;79;21606;-73
2021/01/02 08:07:59;;;;;;;11.37;5.23;;;;;;;3.89;100.00;100871.53;1719931;83;20993;-72
2021/01/02 08:10:35;;;;;;;10.83;6.17;;;;;;;3.92;100.00;100862.45;1889947;75;26681;-73
2021/01/02 08:13:02;;;;;;;18.43;8.57;;;;;;;3.89;100.00;100869.34;1860887;77;21040;-72
2021/01/02 08:15:35;;;;;;;16.40;6.03;;;;;;;3.90;100.00;100874.59;1857606;77;21204;-71
2021/01/02 08:18:05;;;;;;;24.00;15.25;;;;;;;3.91;100.00;100879.45;1784620;80;20998;-71
2021/01/02 08:20:33;;;;;;;25.07;16.90;;;;;;;3.91;100.00;100874.98;1788276;80;20998;-70
2021/01/02 08:23:09;;;;;;;23.30;14.70;;;;;;;3.95;100.00;100879.63;1784743;80;21468;-72
2021/01/02 08:25:37;;;;;;;15.03;8.93;;;;;;;3.99;100.00;100875.77;1788111;80;21031;-73
2021/01/02 08:28:05;;;;;;;18.77;11.67;;;;;;;4.03;100.00;100884.44;1784577;80;22380;-72
2021/01/02 08:30:33;;;;;;;15.47;7.97;;;;;;;4.03;100.00;100882.61;1816627;78;20974;-72
2021/01/02 08:33:01;;;;;;;15.23;8.10;;;;;;;4.03;100.00;100885.28;1816710;79;21001;-71
2021/01/02 08:35:39;;;;;;;8.10;4.90;;;;;;;4.03;100.00;100885.77;1784513;80;20985;-71
2021/01/02 08:38:10;;;;;;;15.37;7.40;;;;;;;4.07;100.00;100887.27;1816798;79;20997;-72
2021/01/02 08:40:43;;;;;;;20.53;7.03;;;;;;;4.13;100.00;100889.03;1668096;84;21218;-72
2021/01/02 08:43:25;;;;;;;18.05;6.58;;;;;;;4.18;100.00;100900.27;1738792;82;21667;-72
2021/01/02 08:46:03;;;;;;;9.73;5.07;;;;;;;4.24;100.00;100897.63;1744177;81;21057;-73
2021/01/02 08:48:31;;;;;;;17.57;7.13;;;;;;;4.29;100.00;100903.52;1744716;82;21668;-72
2021/01/02 08:51:01;;;;;;;13.43;5.60;;;;;;;4.37;100.00;100904.30;1744729;81;21199;-72
2021/01/02 08:53:32;;;;;;;15.23;6.23;;;;;;;4.41;100.00;100900.45;1751529;81;21090;-73
2021/01/02 08:56:22;;;;;;;14.60;6.05;;;;;;;4.42;100.00;100901.30;1759932;81;21075;-71
2021/01/02 08:58:50;;;;;;;13.97;6.97;;;;;;;4.39;100.00;100906.38;1744634;82;21033;-71
2021/01/02 09:01:18;;;;;;;14.47;7.23;;;;;;;4.40;100.00;100913.95;1744601;82;21033;-69
2021/01/02 09:03:46;;;;;;;11.40;5.20;;;;;;;4.36;100.00;100912.82;1744711;82;20914;-70
2021/01/02 09:06:21;;;;;;;10.03;5.23;;;;;;;4.36;100.00;100922.69;1744543;82;21361;-69
2021/01/02 09:09:06;;;;;;;9.07;4.47;;;;;;;4.46;100.00;100913.49;1889806;76;27175;-70
2021/01/02 09:11:50;;;;;;;9.80;5.27;;;;;;;4.47;100.00;100916.56;1860884;77;20963;-68
2021/01/02 09:14:18;;;;;;;11.27;5.00;;;;;;;4.53;100.00;100914.30;1854287;76;21113;-70
2021/01/02 09:17:01;;;;;;;13.23;5.67;;;;;;;4.53;100.00;100919.66;1852398;77;21017;-69
2021/01/02 09:19:29;;;;;;;18.07;6.10;;;;;;;4.53;100.00;100912.08;1779504;80;21011;-70
2021/01/02 09:21:58;;;;;;;20.33;8.00;;;;;;;4.54;100.00;100910.64;1795434;79;21292;-70
2021/01/02 09:24:27;;;;;;;18.27;9.47;;;;;;;4.54;100.00;100918.67;1793997;79;20922;-69
2021/01/02 09:26:56;;;;;;;9.80;5.07;;;;;;;4.54;100.00;100920.50;1798088;79;21476;-70
2021/01/02 09:29:23;;;;;;;10.57;5.37;;;;;;;4.54;100.00;100921.84;1798149;79;21002;-69
2021/01/02 09:31:53;;;;;;;12.87;5.30;;;;;;;4.54;100.00;100925.37;1798208;79;20979;-70
2021/01/02 09:34:21;;;;;;;7.60;4.23;;;;;;;4.58;100.00;100929.17;1798142;79;21014;-70
2021/01/02 09:36:50;;;;;;;8.90;4.10;;;;;;;4.63;100.00;100928.36;1797971;79;21085;-69
2021/01/02 09:39:23;;;;;;;10.90;4.87;;;;;;;4.66;100.00;100930.83;1798088;79;21234;-70
2021/01/02 09:41:51;;;;;;;11.18;4.75;;;;;;;4.65;100.00;100933.97;1798218;79;20991;-70
2021/01/02 09:44:19;;;;;;;9.80;4.37;;;;;;;4.66;100.00;100934.84;1797919;79;21021;-70
2021/01/02 09:46:51;;;;;;;10.10;4.40;;;;;;;4.64;100.00;100926.91;1797870;79;20971;-70
2021/01/02 09:49:19;;;;;;;11.27;5.73;;;;;;;4.62;100.00;100925.30;1798127;79;21025;-71
2021/01/02 09:51:47;;;;;;;10.90;5.13;;;;;;;4.56;100.00;100927.94;1798148;79;22760;-70
2021/01/02 09:54:15;;;;;;;10.57;4.77;;;;;;;4.54;100.00;100929.88;1798028;79;21030;-70
2021/01/02 09:56:45;;;;;;;20.63;8.80;;;;;;;4.56;100.00;100935.48;1798096;79;21643;-70
2021/01/02 09:59:15;;;;;;;13.70;6.83;;;;;;;4.59;100.00;100934.92;1733971;82;21030;-70
2021/01/02 10:01:42;;;;;;;15.53;7.10;;;;;;;4.63;100.00;100937.73;1734148;82;20955;-70
2021/01/02 10:04:10;;;;;;;11.13;4.93;;;;;;;4.65;100.00;100941.16;1734190;82;21422;-71
2021/01/02 10:06:45;;;;;;;27.75;10.70;;;;;;;4.65;100.00;100942.00;1733927;82;21097;-70
2021/01/02 10:09:14;;;;;;;24.87;10.43;;;;;;;4.69;100.00;100948.87;1732115;82;20967;-69
2021/01/02 10:11:43;;;;;;;18.80;9.77;;;;;;;4.73;100.00;100940.12;1732354;82;21265;-70
2021/01/02 10:14:11;;;;;;;17.80;9.10;;;;;;;4.74;100.00;100941.33;1730966;82;21005;-71
2021/01/02 10:16:38;;;;;;;12.73;6.87;;;;;;;4.72;100.00;100945.11;1730980;82;21665;-70
2021/01/02 10:19:09;;;;;;;19.33;8.73;;;;;;;4.67;100.00;100945.42;1730511;82;21057;-70
2021/01/02 10:21:36;;;;;;;15.53;7.27;;;;;;;4.64;100.00;100947.47;1730389;83;21025;-70
2021/01/02 10:24:05;;;;;;;14.33;6.30;;;;;;;4.63;100.00;100950.64;1712525;83;21522;-69
2021/01/02 10:26:34;;;;;;;17.53;9.87;;;;;;;4.59;100.00;100950.50;1715992;83;20979;-72
2021/01/02 10:29:04;;;;;;;13.97;6.53;;;;;;;4.55;100.00;100948.98;1715954;83;21061;-71
2021/01/02 10:31:32;;;;;;;11.17;6.53;;;;;;;4.52;100.00;100954.58;1715811;83;21073;-71
2021/01/02 10:34:00;;;;;;;11.80;6.57;;;;;;;4.51;100.00;100947.50;1715985;83;21037;-71
2021/01/02 10:36:28;;;;;;;7.43;3.80;;;;;;;4.50;100.00;100958.70;1715868;83;21638;-69
2021/01/02 10:38:56;;;;;;;5.70;3.43;;;;;;;4.48;100.00;100952.61;1715999;83;21108;-71
2021/01/02 10:41:24;;;;;;;12.57;5.50;;;;;;;4.49;100.00;100956.98;1716006;83;21381;-71
2021/01/02 10:43:52;;;;;;;14.67;8.33;;;;;;;4.53;100.00;100956.28;1715932;83;21025;-71
2021/01/02 10:46:20;;;;;;;8.20;4.37;;;;;;;4.56;100.00;100966.29;1725161;83;21104;-70
2021/01/02 10:48:49;;;;;;;8.57;4.70;;;;;;;4.58;100.00;100959.98;1730458;83;21096;-70
2021/01/02 10:51:19;;;;;;;11.47;6.07;;;;;;;4.59;100.00;100954.52;1730579;83;20949;-70
2021/01/02 10:53:47;;;;;;;8.93;4.90;;;;;;;4.61;100.00;100955.75;1730445;83;21538;-69
2021/01/02 10:56:17;;;;;;;7.17;4.23;;;;;;;4.62;100.00;100958.78;1767660;80;20974;-71
2021/01/02 10:58:45;;;;;;;9.47;4.90;;;;;;;4.62;100.00;100965.48;1794189;80;20922;-70
2021/01/02 11:01:14;;;;;;;4.93;2.77;;;;;;;4.65;100.00;100965.27;1794257;80;20882;-70
2021/01/02 11:03:42;;;;;;;10.90;4.73;;;;;;;4.68;100.00;100962.37;1794192;80;21018;-69
2021/01/02 11:06:12;;;;;;;6.67;3.40;;;;;;;4.73;100.00;100965.59;1794194;80;21808;-70
2021/01/02 11:08:40;;;;;;;13.33;5.13;;;;;;;4.69;100.00;100969.43;1789687;80;21021;-71
2021/01/02 11:11:08;;;;;;;18.37;7.67;;;;;;;4.70;100.00;100970.66;1794143;80;20926;-71
2021/01/02 11:13:35;;;;;;;13.37;6.17;;;;;;;4.69;100.00;100969.43;1794322;80;21459;-70
2021/01/02 11:16:04;;;;;;;11.47;4.90;;;;;;;4.70;100.00;100974.68;1794243;80;21028;-71
2021/01/02 11:18:32;;;;;;;12.77;5.50;;;;;;;4.70;100.00;100977.36;1794304;80;21196;-70
2021/01/02 11:21:00;;;;;;;13.30;5.47;;;;;;;4.68;100.00;100976.62;1794147;80;21033;-70
2021/01/02 11:23:28;;;;;;;15.43;7.00;;;;;;;4.66;100.00;100973.20;1794071;80;20957;-71
2021/01/02 11:25:55;;;;;;;15.17;7.00;;;;;;;4.67;100.00;100976.23;1798548;79;21599;-71
2021/01/02 11:28:24;;;;;;;8.33;4.40;;;;;;;4.68;100.00;100979.80;1790072;80;20978;-72
2021/01/02 11:30:53;;;;;;;9.40;4.57;;;;;;;4.67;100.00;100974.05;1813464;79;21201;-72
2021/01/02 11:33:21;;;;;;;10.23;4.37;;;;;;;4.65;100.00;100980.84;1813397;79;20954;-70
2021/01/02 11:35:49;;;;;;;6.87;4.00;;;;;;;4.61;100.00;100978.52;1789886;79;21021;-71
2021/01/02 11:38:17;;;;;;;9.00;3.73;;;;;;;4.61;100.00;100981.20;1813240;79;20931;-70
2021/01/02 11:40:45;;;;;;;15.60;6.03;;;;;;;4.61;100.00;100984.72;1790066;80;20989;-71
2021/01/02 11:43:13;;;;;;;11.90;5.47;;;;;;;4.66;100.00;100992.45;1813478;79;22486;-70
2021/01/02 11:45:46;;;;;;;15.23;6.40;;;;;;;4.67;100.00;100999.01;1817931;78;21006;-72
2021/01/02 11:48:14;;;;;;;15.90;6.43;;;;;;;4.71;100.00;101003.66;1825123;78;21010;-71